Time;durP1;ratioP1;P1;durP2;ratioP2;P2;SDS_P1;SDS_P2;PMS_P1;PMS_P2;Temp;Humidity;BMP_temperature;BMP_pressure;BME280_temperature;BME280_humidity;BME280_pressure;Samples;Min_cycle;Max_cycle;Signal;HPM_P1;HPM_P2
2022/01/04 00:00:48;;;;;;;29.30;10.87;;;;;;;;;;5028532;28;20116;-68
2022/01/04 00:03:14;;;;;;;24.03;9.67;;;;;;;;;;5028447;28;20411;-68
2022/01/04 00:05:40;;;;;;;30.83;11.17;;;;;;;;;;5020130;28;20041;-67
2022/01/04 00:08:10;;;;;;;21.77;9.50;;;;;;;;;;5028779;28;20099;-68
2022/01/04 00:10:36;;;;;;;38.17;11.80;;;;;;;;;;5025001;28;20045;-68
2022/01/04 00:13:22;;;;;;;25.10;9.70;;;;;;;;;;5027979;28;20515;-68
2022/01/04 00:15:49;;;;;;;20.80;8.67;;;;;;;;;;5028300;28;20393;-67
2022/01/04 00:18:16;;;;;;;30.73;8.77;;;;;;;;;;5028553;28;20053;-68
2022/01/04 00:20:42;;;;;;;30.97;9.43;;;;;;;;;;5028347;28;20049;-67
2022/01/04 00:23:08;;;;;;;23.70;9.13;;;;;;;;;;5028247;28;20519;-68
2022/01/04 00:25:34;;;;;;;30.50;9.50;;;;;;;;;;5028183;28;20104;-68
2022/01/04 00:28:01;;;;;;;30.67;9.17;;;;;;;;;;5022949;28;20038;-68
2022/01/04 00:30:29;;;;;;;27.03;9.33;;;;;;;;;;5015928;28;20045;-68
2022/01/04 00:32:55;;;;;;;28.97;10.33;;;;;;;;;;5029279;28;20056;-68
2022/01/04 00:35:21;;;;;;;27.57;9.00;;;;;;;;;;5031954;28;20070;-67
2022/01/04 00:37:47;;;;;;;22.27;9.50;;;;;;;;;;5031432;28;20575;-68
2022/01/04 00:40:14;;;;;;;31.87;10.37;;;;;;;;;;5032498;28;20037;-68
2022/01/04 00:42:40;;;;;;;36.17;10.07;;;;;;;;;;5031689;28;20160;-68
2022/01/04 00:45:06;;;;;;;31.93;10.30;;;;;;;;;;5032181;28;20037;-67
2022/01/04 00:49:09;;;;;;;33.17;11.13;;;;;;;;;;5032299;28;20080;-68
2022/01/04 00:50:25;;;;;;;35.83;10.23;;;;;;;;;;5030495;28;20046;-67
2022/01/04 00:52:51;;;;;;;34.17;11.43;;;;;;;;;;5028002;28;20041;-68
2022/01/04 00:55:17;;;;;;;36.57;11.70;;;;;;;;;;5030598;28;20407;-68
2022/01/04 00:57:44;;;;;;;30.33;10.17;;;;;;;;;;5030800;28;20057;-69
2022/01/04 01:00:11;;;;;;;29.47;10.73;;;;;;;;;;5031491;28;21527;-68
2022/01/04 01:02:37;;;;;;;28.43;11.27;;;;;;;;;;5023332;28;20049;-68
2022/01/04 01:05:04;;;;;;;30.33;10.47;;;;;;;;;;5031516;28;20599;-67
2022/01/04 01:07:30;;;;;;;33.77;12.33;;;;;;;;;;5026099;28;20048;-68
2022/01/04 01:12:40;;;;;;;37.17;12.30;;;;;;;;;;5030603;28;20050;-69
2022/01/04 01:15:07;;;;;;;30.23;11.27;;;;;;;;;;5031883;28;20072;-67
2022/01/04 01:17:33;;;;;;;26.40;12.70;;;;;;;;;;5031306;28;20057;-68
2022/01/04 01:20:00;;;;;;;40.07;13.40;;;;;;;;;;5030507;28;20045;-68
2022/01/04 01:22:26;;;;;;;35.90;11.47;;;;;;;;;;5031034;28;20047;-68
2022/01/04 01:24:52;;;;;;;39.83;12.30;;;;;;;;;;5029937;28;20092;-68
2022/01/04 01:27:18;;;;;;;31.50;13.37;;;;;;;;;;5029563;28;20053;-68
2022/01/04 01:29:44;;;;;;;30.30;13.17;;;;;;;;;;5030638;28;20089;-68
2022/01/04 01:32:10;;;;;;;27.93;13.10;;;;;;;;;;5022378;28;20081;-68
2022/01/04 01:34:36;;;;;;;36.00;12.70;;;;;;;;;;5030381;28;20519;-68
2022/01/04 01:37:02;;;;;;;33.23;13.23;;;;;;;;;;5027066;28;20381;-68
2022/01/04 01:39:28;;;;;;;34.10;14.20;;;;;;;;;;5023108;28;20049;-68
2022/01/04 01:41:54;;;;;;;43.83;15.03;;;;;;;;;;5031064;28;20045;-68
2022/01/04 01:44:21;;;;;;;37.20;15.07;;;;;;;;;;5030229;28;20052;-68
2022/01/04 01:46:48;;;;;;;40.30;15.43;;;;;;;;;;5022326;28;20053;-68
2022/01/04 01:49:14;;;;;;;34.10;15.67;;;;;;;;;;5028993;28;20042;-68
2022/01/04 01:51:40;;;;;;;41.13;15.77;;;;;;;;;;5030626;28;20076;-68
2022/01/04 01:54:06;;;;;;;38.90;16.50;;;;;;;;;;5031181;28;21091;-68
2022/01/04 01:56:32;;;;;;;42.50;15.77;;;;;;;;;;5030961;28;20072;-67
2022/01/04 01:58:58;;;;;;;41.93;15.53;;;;;;;;;;5030942;28;20411;-68
2022/01/04 02:01:25;;;;;;;37.57;15.13;;;;;;;;;;5029922;28;20053;-68
2022/01/04 02:03:51;;;;;;;40.07;17.57;;;;;;;;;;5030008;28;20049;-67
2022/01/04 02:06:18;;;;;;;39.47;16.00;;;;;;;;;;5030502;28;20509;-68
2022/01/04 02:08:44;;;;;;;40.67;16.20;;;;;;;;;;5030455;28;20522;-68
2022/01/04 02:11:11;;;;;;;43.70;16.47;;;;;;;;;;5030485;28;20037;-67
2022/01/04 02:13:38;;;;;;;37.50;16.63;;;;;;;;;;5030001;28;20071;-67
2022/01/04 02:16:04;;;;;;;35.03;15.63;;;;;;;;;;5028780;28;20412;-68
2022/01/04 02:18:30;;;;;;;33.57;15.57;;;;;;;;;;5029532;28;20100;-68
2022/01/04 02:20:56;;;;;;;38.33;16.13;;;;;;;;;;5030221;28;20068;-68
2022/01/04 02:23:22;;;;;;;46.57;16.80;;;;;;;;;;5029253;28;20805;-68
2022/01/04 02:25:49;;;;;;;40.50;15.40;;;;;;;;;;5028993;28;20167;-68
2022/01/04 02:28:18;;;;;;;40.70;17.77;;;;;;;;;;5030350;28;20471;-68
2022/01/04 02:30:44;;;;;;;35.93;15.80;;;;;;;;;;5029994;28;20108;-68
2022/01/04 02:33:10;;;;;;;38.27;16.00;;;;;;;;;;5023217;28;20046;-68
2022/01/04 02:35:36;;;;;;;39.97;16.90;;;;;;;;;;5027452;28;20098;-68
2022/01/04 02:38:03;;;;;;;41.50;16.00;;;;;;;;;;5028555;28;20160;-68
2022/01/04 02:40:31;;;;;;;38.67;15.33;;;;;;;;;;5029717;28;20156;-68
2022/01/04 02:42:57;;;;;;;41.90;18.40;;;;;;;;;;5029990;28;20073;-68
2022/01/04 02:45:23;;;;;;;35.57;16.50;;;;;;;;;;5011882;28;20071;-68
2022/01/04 02:47:49;;;;;;;38.37;16.90;;;;;;;;;;5021073;28;20054;-68
2022/01/04 02:50:16;;;;;;;41.43;16.27;;;;;;;;;;5028212;28;20046;-68
2022/01/04 02:52:42;;;;;;;37.17;16.97;;;;;;;;;;5028250;28;20048;-68
2022/01/04 02:55:09;;;;;;;42.17;15.67;;;;;;;;;;5029047;28;20060;-68
2022/01/04 02:57:35;;;;;;;42.13;16.40;;;;;;;;;;5028236;28;20052;-68
2022/01/04 03:00:02;;;;;;;39.53;15.70;;;;;;;;;;5027329;28;20058;-68
2022/01/04 03:02:28;;;;;;;35.50;15.60;;;;;;;;;;5029650;28;20041;-68
2022/01/04 03:04:54;;;;;;;39.00;17.40;;;;;;;;;;5029222;28;20180;-67
2022/01/04 03:07:20;;;;;;;36.37;16.10;;;;;;;;;;5028414;28;20136;-68
2022/01/04 03:09:46;;;;;;;39.90;16.63;;;;;;;;;;5027917;28;20049;-68
2022/01/04 03:12:12;;;;;;;35.27;15.40;;;;;;;;;;5029600;28;20076;-67
2022/01/04 03:14:38;;;;;;;39.67;15.63;;;;;;;;;;5026721;28;20075;-68
2022/01/04 03:17:04;;;;;;;35.97;16.30;;;;;;;;;;5028481;28;20057;-69
2022/01/04 03:19:31;;;;;;;33.07;16.03;;;;;;;;;;5029150;28;20140;-68
2022/01/04 03:21:57;;;;;;;35.50;15.77;;;;;;;;;;5028815;28;20072;-69
2022/01/04 03:24:23;;;;;;;40.70;16.80;;;;;;;;;;5027914;28;20037;-68
2022/01/04 03:26:49;;;;;;;33.23;15.83;;;;;;;;;;5027856;28;20076;-68
2022/01/04 03:29:16;;;;;;;28.70;15.83;;;;;;;;;;5026958;28;20503;-68
2022/01/04 03:31:42;;;;;;;37.90;16.30;;;;;;;;;;5027838;28;20049;-68
2022/01/04 03:34:08;;;;;;;40.87;18.63;;;;;;;;;;5003647;28;20592;-68
2022/01/04 03:36:35;;;;;;;35.97;16.43;;;;;;;;;;5028275;28;20125;-68
2022/01/04 03:39:04;;;;;;;38.57;15.77;;;;;;;;;;5028827;28;20160;-68
2022/01/04 03:41:31;;;;;;;41.27;18.47;;;;;;;;;;5027797;28;20411;-68
2022/01/04 03:43:56;;;;;;;34.87;17.60;;;;;;;;;;5028680;28;20564;-68
2022/01/04 03:46:23;;;;;;;37.07;16.73;;;;;;;;;;5028327;28;20128;-68
2022/01/04 03:48:49;;;;;;;32.40;16.37;;;;;;;;;;5028722;28;20042;-68
2022/01/04 03:51:15;;;;;;;37.33;17.20;;;;;;;;;;5027278;28;20057;-69
2022/01/04 03:53:41;;;;;;;38.33;17.97;;;;;;;;;;5028285;28;20053;-68
2022/01/04 03:56:07;;;;;;;36.87;17.53;;;;;;;;;;5019929;28;20416;-68
2022/01/04 03:58:33;;;;;;;36.50;17.03;;;;;;;;;;5027014;28;20598;-68
2022/01/04 04:01:01;;;;;;;41.13;17.33;;;;;;;;;;5027889;28;20045;-68
2022/01/04 04:03:27;;;;;;;40.23;18.07;;;;;;;;;;5028641;28;20088;-68
2022/01/04 04:05:53;;;;;;;39.10;17.67;;;;;;;;;;5028563;28;20068;-68
2022/01/04 04:08:19;;;;;;;40.83;18.73;;;;;;;;;;5027825;28;20033;-69
2022/01/04 04:10:45;;;;;;;37.30;18.60;;;;;;;;;;5028653;28;20385;-69
2022/01/04 04:13:11;;;;;;;39.47;17.50;;;;;;;;;;5027271;28;20458;-68
2022/01/04 04:15:40;;;;;;;38.17;17.83;;;;;;;;;;5027251;28;20518;-68
2022/01/04 04:18:07;;;;;;;40.83;18.67;;;;;;;;;;5026704;28;20415;-68
2022/01/04 04:20:34;;;;;;;35.63;18.43;;;;;;;;;;5028329;28;20125;-68
2022/01/04 04:23:00;;;;;;;43.63;18.87;;;;;;;;;;5019295;28;20042;-68
2022/01/04 04:25:26;;;;;;;38.47;17.93;;;;;;;;;;5027712;28;20085;-68
2022/01/04 04:27:52;;;;;;;44.50;19.27;;;;;;;;;;5027923;28;20041;-69
2022/01/04 04:30:18;;;;;;;34.27;18.93;;;;;;;;;;5020155;28;20050;-68
2022/01/04 04:32:44;;;;;;;34.67;17.70;;;;;;;;;;5028180;28;20049;-68
2022/01/04 04:35:10;;;;;;;36.53;19.00;;;;;;;;;;5026945;28;20048;-68
2022/01/04 04:37:36;;;;;;;37.50;17.67;;;;;;;;;;5027276;28;20107;-68
2022/01/04 04:40:03;;;;;;;36.20;18.13;;;;;;;;;;5020114;28;20041;-68
2022/01/04 04:42:29;;;;;;;33.23;17.40;;;;;;;;;;5022817;28;20042;-68
2022/01/04 04:44:55;;;;;;;31.83;15.57;;;;;;;;;;5027620;28;20103;-69
2022/01/04 04:47:21;;;;;;;35.93;16.57;;;;;;;;;;5028049;28;20045;-69
2022/01/04 04:49:47;;;;;;;31.23;15.73;;;;;;;;;;5026845;28;20038;-68
2022/01/04 04:52:13;;;;;;;26.43;13.40;;;;;;;;;;5028242;28;20069;-68
2022/01/04 04:54:39;;;;;;;33.30;14.53;;;;;;;;;;5019593;28;20088;-68
2022/01/04 04:57:05;;;;;;;27.90;15.87;;;;;;;;;;5028633;28;20045;-68
2022/01/04 04:59:31;;;;;;;41.23;16.47;;;;;;;;;;5023460;28;20188;-69
2022/01/04 05:01:57;;;;;;;30.97;16.83;;;;;;;;;;5022071;28;20389;-69
2022/01/04 05:04:23;;;;;;;38.20;18.60;;;;;;;;;;5018576;28;20412;-69
2022/01/04 05:06:49;;;;;;;37.07;18.07;;;;;;;;;;5026539;28;20091;-69
2022/01/04 05:09:15;;;;;;;35.17;18.80;;;;;;;;;;5023004;28;20042;-69
2022/01/04 05:11:41;;;;;;;39.30;20.13;;;;;;;;;;5027348;28;20038;-69
2022/01/04 05:14:07;;;;;;;44.43;20.30;;;;;;;;;;5027213;28;20045;-69
2022/01/04 05:16:33;;;;;;;33.50;21.23;;;;;;;;;;5027098;28;20416;-69
2022/01/04 05:18:59;;;;;;;43.17;21.17;;;;;;;;;;5023512;28;20088;-68
2022/01/04 05:21:25;;;;;;;48.80;21.30;;;;;;;;;;5027523;28;20771;-69
2022/01/04 05:23:54;;;;;;;40.70;20.73;;;;;;;;;;5028095;28;20042;-69
2022/01/04 05:26:20;;;;;;;45.47;21.47;;;;;;;;;;5026700;28;20087;-69
2022/01/04 05:28:46;;;;;;;43.00;22.00;;;;;;;;;;5030746;28;20037;-69
2022/01/04 05:31:12;;;;;;;41.67;21.53;;;;;;;;;;5030581;28;20044;-69
2022/01/04 05:33:38;;;;;;;47.30;22.33;;;;;;;;;;5030653;28;20044;-69
2022/01/04 05:36:04;;;;;;;55.87;22.50;;;;;;;;;;5031170;28;20037;-69
2022/01/04 05:38:30;;;;;;;46.10;22.53;;;;;;;;;;5023236;28;20060;-69
2022/01/04 05:40:56;;;;;;;35.97;22.27;;;;;;;;;;5028692;28;20048;-69
2022/01/04 05:43:22;;;;;;;44.10;23.70;;;;;;;;;;5030849;28;20038;-68
2022/01/04 05:45:49;;;;;;;47.57;22.07;;;;;;;;;;5030159;28;20052;-69
2022/01/04 05:48:18;;;;;;;42.40;22.30;;;;;;;;;;5031180;28;20407;-69
2022/01/04 05:50:44;;;;;;;45.90;23.47;;;;;;;;;;5030612;28;20053;-69
2022/01/04 05:53:10;;;;;;;39.87;21.37;;;;;;;;;;5028956;28;20527;-69
2022/01/04 05:55:36;;;;;;;40.43;23.57;;;;;;;;;;5030995;28;20045;-69
2022/01/04 05:58:02;;;;;;;52.10;25.97;;;;;;;;;;5030629;28;20799;-69
2022/01/04 06:00:28;;;;;;;42.70;23.77;;;;;;;;;;5030029;28;20156;-69
2022/01/04 06:02:55;;;;;;;46.33;22.60;;;;;;;;;;5030549;28;20104;-69
2022/01/04 06:05:21;;;;;;;46.27;23.10;;;;;;;;;;5030578;28;20046;-69
2022/01/04 06:07:47;;;;;;;45.97;23.53;;;;;;;;;;5030413;28;20474;-69
2022/01/04 06:10:14;;;;;;;51.20;24.33;;;;;;;;;;5030610;28;20088;-69
2022/01/04 06:15:08;;;;;;;44.97;25.07;;;;;;;;;;5029813;28;20049;-69
2022/01/04 06:17:35;;;;;;;50.50;24.33;;;;;;;;;;5030003;28;20428;-69
2022/01/04 06:20:03;;;;;;;48.30;25.00;;;;;;;;;;5030614;28;20061;-69
2022/01/04 06:22:30;;;;;;;45.10;24.10;;;;;;;;;;5029954;28;20045;-69
2022/01/04 06:24:56;;;;;;;47.50;24.77;;;;;;;;;;5014233;28;20087;-69
2022/01/04 06:27:22;;;;;;;48.83;24.80;;;;;;;;;;5025169;28;20503;-69
2022/01/04 06:29:48;;;;;;;47.23;26.00;;;;;;;;;;5030262;28;20049;-69
2022/01/04 06:32:15;;;;;;;50.73;24.43;;;;;;;;;;5032524;28;20041;-69
2022/01/04 06:34:42;;;;;;;51.77;24.20;;;;;;;;;;5021916;28;20080;-69
2022/01/04 06:37:09;;;;;;;55.00;25.87;;;;;;;;;;5029654;28;20049;-69
2022/01/04 06:39:35;;;;;;;51.67;26.27;;;;;;;;;;5029535;28;20045;-69
2022/01/04 06:42:02;;;;;;;47.80;25.13;;;;;;;;;;5028424;28;20053;-69
2022/01/04 06:44:28;;;;;;;53.33;27.20;;;;;;;;;;5029165;28;20038;-69
2022/01/04 06:46:54;;;;;;;48.90;25.50;;;;;;;;;;5029757;28;20098;-69
2022/01/04 06:49:21;;;;;;;50.03;25.97;;;;;;;;;;5028145;28;20119;-70
2022/01/04 06:51:47;;;;;;;55.47;27.03;;;;;;;;;;5008836;28;20563;-70
2022/01/04 06:54:14;;;;;;;49.90;25.60;;;;;;;;;;5022215;28;20542;-69
2022/01/04 06:56:40;;;;;;;48.10;23.33;;;;;;;;;;5027933;28;20037;-69
2022/01/04 06:59:07;;;;;;;46.20;26.70;;;;;;;;;;5029197;28;20037;-69
2022/01/04 07:01:34;;;;;;;55.93;26.43;;;;;;;;;;5029380;28;20046;-69
2022/01/04 07:04:00;;;;;;;49.83;27.03;;;;;;;;;;5028396;28;20051;-70
2022/01/04 07:06:26;;;;;;;51.73;25.90;;;;;;;;;;5029727;28;20045;-69
2022/01/04 07:08:52;;;;;;;47.23;24.70;;;;;;;;;;5026858;28;20140;-69
2022/01/04 07:11:18;;;;;;;55.63;27.00;;;;;;;;;;5027915;28;20129;-70
2022/01/04 07:13:44;;;;;;;43.90;25.80;;;;;;;;;;5026674;28;20045;-70
2022/01/04 07:16:10;;;;;;;46.10;25.50;;;;;;;;;;5037879;28;20072;-69
2022/01/04 07:18:36;;;;;;;46.17;24.50;;;;;;;;;;5029955;28;20098;-69
2022/01/04 07:21:03;;;;;;;44.33;25.70;;;;;;;;;;5042712;28;20127;-68
2022/01/04 07:23:29;;;;;;;43.93;25.50;;;;;;;;;;5040127;28;20048;-69
2022/01/04 07:25:55;;;;;;;42.70;25.57;;;;;;;;;;5047937;28;20045;-70
2022/01/04 07:28:21;;;;;;;47.47;24.90;;;;;;;;;;5044958;28;20131;-70
2022/01/04 07:30:48;;;;;;;42.80;26.23;;;;;;;;;;5026506;28;20045;-69
2022/01/04 07:33:14;;;;;;;44.87;24.27;;;;;;;;;;5027214;28;20183;-70
2022/01/04 07:35:40;;;;;;;46.80;24.83;;;;;;;;;;5047545;28;20586;-69
2022/01/04 07:38:06;;;;;;;47.83;26.57;;;;;;;;;;5047324;28;20044;-69
2022/01/04 07:40:32;;;;;;;59.33;28.17;;;;;;;;;;5031329;28;20049;-70
2022/01/04 07:43:00;;;;;;;45.97;24.97;;;;;;;;;;5028214;28;20407;-69
2022/01/04 07:45:30;;;;;;;50.47;27.63;;;;;;;;;;5035200;28;20056;-70
2022/01/04 07:47:56;;;;;;;46.43;24.60;;;;;;;;;;5041890;28;20044;-70
2022/01/04 07:50:22;;;;;;;47.57;28.07;;;;;;;;;;5038974;28;20057;-70
2022/01/04 07:52:48;;;;;;;48.57;27.00;;;;;;;;;;5043729;28;20132;-69
2022/01/04 07:55:14;;;;;;;47.40;26.77;;;;;;;;;;5030761;28;20141;-69
2022/01/04 07:57:42;;;;;;;59.93;29.03;;;;;;;;;;5037046;28;20041;-70
2022/01/04 08:00:09;;;;;;;47.17;26.93;;;;;;;;;;5036088;28;20071;-70
2022/01/04 08:02:35;;;;;;;44.83;26.07;;;;;;;;;;5031598;28;20558;-70
2022/01/04 08:05:01;;;;;;;45.00;25.00;;;;;;;;;;5028813;28;20852;-70
2022/01/04 08:07:27;;;;;;;42.80;25.90;;;;;;;;;;5042753;28;20040;-70
2022/01/04 08:09:56;;;;;;;43.17;24.73;;;;;;;;;;5046533;28;20033;-69
2022/01/04 08:12:22;;;;;;;39.47;23.13;;;;;;;;;;5043490;28;20050;-70
2022/01/04 08:14:48;;;;;;;38.83;23.07;;;;;;;;;;5036618;28;20137;-69
2022/01/04 08:17:15;;;;;;;40.10;21.73;;;;;;;;;;5046056;28;20199;-70
2022/01/04 08:19:41;;;;;;;41.10;22.03;;;;;;;;;;5022187;28;20099;-69
2022/01/04 08:22:07;;;;;;;35.93;21.40;;;;;;;;;;5038511;28;20049;-70
2022/01/04 08:24:33;;;;;;;41.70;22.30;;;;;;;;;;5033389;28;20045;-69
2022/01/04 08:27:00;;;;;;;46.90;24.00;;;;;;;;;;5045101;28;20116;-70
2022/01/04 08:29:26;;;;;;;37.97;22.03;;;;;;;;;;5029819;28;20041;-70
2022/01/04 08:31:52;;;;;;;37.57;23.30;;;;;;;;;;5031399;28;20042;-70
2022/01/04 08:34:18;;;;;;;42.50;22.60;;;;;;;;;;5030663;28;20136;-70
2022/01/04 08:36:44;;;;;;;44.33;23.13;;;;;;;;;;5028766;28;20574;-69
2022/01/04 08:39:14;;;;;;;42.20;24.83;;;;;;;;;;5028365;28;20553;-70
2022/01/04 08:41:41;;;;;;;56.47;23.77;;;;;;;;;;5028426;28;20053;-71
2022/01/04 08:44:08;;;;;;;40.60;24.83;;;;;;;;;;5027174;28;20049;-71
2022/01/04 08:46:35;;;;;;;42.30;24.77;;;;;;;;;;5026916;28;20432;-70
2022/01/04 08:49:02;;;;;;;47.17;24.70;;;;;;;;;;5010583;28;20084;-70
2022/01/04 08:51:28;;;;;;;45.40;23.43;;;;;;;;;;5026921;28;20612;-70
2022/01/04 08:53:54;;;;;;;45.57;24.27;;;;;;;;;;5027891;28;20634;-70
2022/01/04 08:56:20;;;;;;;41.73;23.80;;;;;;;;;;5014847;28;20459;-70
2022/01/04 08:58:46;;;;;;;41.03;23.80;;;;;;;;;;5031286;28;20069;-70
2022/01/04 09:01:12;;;;;;;46.77;25.07;;;;;;;;;;5030646;28;20095;-70
2022/01/04 09:03:38;;;;;;;43.83;24.23;;;;;;;;;;5032186;28;20037;-70
2022/01/04 09:06:05;;;;;;;44.17;24.40;;;;;;;;;;5030364;28;20381;-70
2022/01/04 09:08:31;;;;;;;44.73;25.00;;;;;;;;;;5015791;28;20055;-70
2022/01/04 09:10:57;;;;;;;48.23;26.43;;;;;;;;;;5030522;28;20045;-70
2022/01/04 09:13:25;;;;;;;49.70;26.70;;;;;;;;;;5030567;28;20048;-70
2022/01/04 09:21:11;;;;;;;92.83;34.23;;;;;;;;;;5042024;28;20044;-70
2022/01/04 09:23:37;;;;;;;53.10;25.20;;;;;;;;;;5046881;28;20727;-70
2022/01/04 09:26:04;;;;;;;56.13;25.20;;;;;;;;;;5042244;28;20095;-70
2022/01/04 09:28:30;;;;;;;29.47;16.73;;;;;;;;;;5030326;28;20057;-70
2022/01/04 09:30:57;;;;;;;38.43;15.97;;;;;;;;;;5031735;28;20041;-70
2022/01/04 09:33:24;;;;;;;35.93;16.07;;;;;;;;;;5031537;28;20069;-70
2022/01/04 09:35:50;;;;;;;25.67;12.03;;;;;;;;;;5037055;28;20048;-70
2022/01/04 09:38:16;;;;;;;24.97;10.80;;;;;;;;;;5047866;28;20048;-70
2022/01/04 09:40:42;;;;;;;32.17;10.27;;;;;;;;;;5031163;28;20124;-70
2022/01/04 09:43:08;;;;;;;31.00;9.67;;;;;;;;;;5030475;28;20053;-70
2022/01/04 09:45:35;;;;;;;23.47;7.67;;;;;;;;;;5030417;28;20045;-70
2022/01/04 09:48:01;;;;;;;43.73;9.20;;;;;;;;;;5029636;28;20108;-70
2022/01/04 09:50:27;;;;;;;19.93;7.07;;;;;;;;;;5030754;28;20049;-70
2022/01/04 09:52:55;;;;;;;16.60;6.50;;;;;;;;;;5029926;28;20099;-70
2022/01/04 09:55:21;;;;;;;12.17;5.00;;;;;;;;;;5030988;28;20038;-70
2022/01/04 09:57:48;;;;;;;11.10;4.63;;;;;;;;;;5029575;28;20141;-70
2022/01/04 10:00:15;;;;;;;14.47;6.17;;;;;;;;;;5029733;28;20049;-70
2022/01/04 10:02:42;;;;;;;12.60;4.40;;;;;;;;;;5029457;28;20459;-70
2022/01/04 10:05:12;;;;;;;12.60;5.20;;;;;;;;;;5030849;28;20137;-70
2022/01/04 10:07:39;;;;;;;12.53;3.93;;;;;;;;;;5030627;28;20041;-70
2022/01/04 10:10:05;;;;;;;11.97;4.27;;;;;;;;;;5046309;28;20110;-70
2022/01/04 10:12:47;;;;;;;17.60;4.53;;;;;;;;;;5033535;28;20049;-70
2022/01/04 10:15:13;;;;;;;15.00;3.90;;;;;;;;;;5029572;28;20053;-70
2022/01/04 10:17:39;;;;;;;11.30;4.30;;;;;;;;;;5040385;28;20061;-69
2022/01/04 10:20:07;;;;;;;8.77;3.13;;;;;;;;;;5049105;28;20045;-70
2022/01/04 10:22:35;;;;;;;14.20;3.37;;;;;;;;;;5050526;28;20045;-70
2022/01/04 10:25:01;;;;;;;9.63;2.60;;;;;;;;;;5047638;28;20120;-70
2022/01/04 10:27:31;;;;;;;8.23;2.67;;;;;;;;;;5048747;28;20141;-70
2022/01/04 10:30:22;;;;;;;14.10;3.27;;;;;;;;;;5017041;28;20037;-70
2022/01/04 10:32:51;;;;;;;11.73;3.60;;;;;;;;;;5023470;28;20056;-70
2022/01/04 10:35:31;;;;;;;6.67;2.70;;;;;;;;;;5031646;28;20462;-70
2022/01/04 10:37:57;;;;;;;17.03;4.13;;;;;;;;;;5030512;28;20087;-70
2022/01/04 10:40:25;;;;;;;10.70;3.27;;;;;;;;;;5028892;28;20053;-70
2022/01/04 10:42:51;;;;;;;19.13;4.73;;;;;;;;;;5034904;28;20122;-70
2022/01/04 10:45:22;;;;;;;16.30;4.10;;;;;;;;;;5040426;28;20399;-70
2022/01/04 10:47:48;;;;;;;5.80;2.83;;;;;;;;;;5028622;28;20152;-69
2022/01/04 10:50:28;;;;;;;12.57;3.17;;;;;;;;;;5028823;28;20057;-70
2022/01/04 10:52:54;;;;;;;12.37;3.57;;;;;;;;;;5028042;28;20403;-69
2022/01/04 10:55:20;;;;;;;12.23;2.90;;;;;;;;;;5046382;28;20072;-70
2022/01/04 10:57:47;;;;;;;15.07;4.43;;;;;;;;;;5027141;28;20076;-69
2022/01/04 11:00:15;;;;;;;17.40;4.77;;;;;;;;;;5026628;28;20080;-69
2022/01/04 11:02:41;;;;;;;13.00;3.57;;;;;;;;;;5027867;28;20144;-71
2022/01/04 11:05:13;;;;;;;12.07;3.30;;;;;;;;;;5031857;28;20094;-69
2022/01/04 11:07:58;;;;;;;14.87;3.50;;;;;;;;;;5032780;28;20053;-69
2022/01/04 11:10:24;;;;;;;14.67;3.97;;;;;;;;;;5028112;28;20581;-69
2022/01/04 11:12:52;;;;;;;15.63;3.90;;;;;;;;;;5028892;28;20083;-68
2022/01/04 11:15:18;;;;;;;14.47;3.90;;;;;;;;;;5027922;28;20056;-68
2022/01/04 11:17:45;;;;;;;15.17;3.57;;;;;;;;;;5027123;28;20512;-69
2022/01/04 11:20:11;;;;;;;9.70;3.00;;;;;;;;;;5027563;28;20116;-69
2022/01/04 11:22:41;;;;;;;11.30;2.70;;;;;;;;;;5030562;28;20048;-68
2022/01/04 11:25:07;;;;;;;11.40;2.63;;;;;;;;;;5034522;28;20454;-69
2022/01/04 11:27:38;;;;;;;13.93;3.00;;;;;;;;;;5028442;28;20489;-69
2022/01/04 11:30:10;;;;;;;8.80;2.07;;;;;;;;;;5027106;28;20136;-69
2022/01/04 11:32:39;;;;;;;14.93;3.10;;;;;;;;;;5027844;28;20076;-69
2022/01/04 11:35:16;;;;;;;11.07;2.40;;;;;;;;;;5037998;28;20137;-69
2022/01/04 11:37:51;;;;;;;8.87;2.70;;;;;;;;;;5030474;28;20046;-69
2022/01/04 11:40:22;;;;;;;12.97;2.97;;;;;;;;;;5011159;28;20056;-69
2022/01/04 11:42:48;;;;;;;10.37;2.53;;;;;;;;;;5031120;28;20053;-69
2022/01/04 11:45:16;;;;;;;12.27;2.80;;;;;;;;;;5032709;28;20049;-69
2022/01/04 11:47:46;;;;;;;11.67;3.60;;;;;;;;;;5027125;28;20069;-69
2022/01/04 11:50:16;;;;;;;7.47;2.67;;;;;;;;;;5029213;28;20041;-69
2022/01/04 11:52:45;;;;;;;10.00;2.87;;;;;;;;;;5027496;28;20053;-69
2022/01/04 11:55:31;;;;;;;7.63;2.33;;;;;;;;;;5027268;28;20454;-68
2022/01/04 11:57:59;;;;;;;6.93;2.17;;;;;;;;;;5026694;28;20049;-69
2022/01/04 12:00:26;;;;;;;5.13;1.53;;;;;;;;;;5028425;28;20038;-69
2022/01/04 12:03:02;;;;;;;4.53;1.10;;;;;;;;;;5027596;28;20048;-69
2022/01/04 12:05:28;;;;;;;10.40;1.50;;;;;;;;;;5027756;28;20077;-68
2022/01/04 12:07:55;;;;;;;6.27;1.03;;;;;;;;;;5029738;28;20052;-69
2022/01/04 12:10:21;;;;;;;7.77;0.93;;;;;;;;;;5033236;28;20041;-68
2022/01/04 12:12:53;;;;;;;4.57;0.87;;;;;;;;;;5027655;28;20048;-69
2022/01/04 12:15:35;;;;;;;3.90;1.00;;;;;;;;;;5026995;28;20393;-68
2022/01/04 12:18:07;;;;;;;7.13;1.30;;;;;;;;;;5027208;28;20049;-69
2022/01/04 12:20:42;;;;;;;7.17;1.40;;;;;;;;;;5037288;28;20049;-69
2022/01/04 12:23:40;;;;;;;10.30;1.90;;;;;;;;;;5036236;28;20569;-68
2022/01/04 12:26:10;;;;;;;9.67;1.60;;;;;;;;;;5010394;28;20092;-69
2022/01/04 12:28:37;;;;;;;8.00;1.30;;;;;;;;;;5028244;28;20428;-68
2022/01/04 12:31:24;;;;;;;3.63;1.43;;;;;;;;;;5032101;28;20099;-68
2022/01/04 12:33:51;;;;;;;3.23;0.83;;;;;;;;;;5030514;28;20056;-68
2022/01/04 12:36:25;;;;;;;5.70;1.20;;;;;;;;;;5039937;28;20046;-68
2022/01/04 12:38:52;;;;;;;10.00;1.17;;;;;;;;;;5032308;28;20057;-68
2022/01/04 12:41:19;;;;;;;8.67;1.20;;;;;;;;;;5031508;28;20049;-68
2022/01/04 12:43:47;;;;;;;5.50;1.17;;;;;;;;;;5030710;28;20046;-68
2022/01/04 12:46:13;;;;;;;5.87;0.87;;;;;;;;;;5030475;28;20579;-68
2022/01/04 12:48:44;;;;;;;10.43;1.07;;;;;;;;;;5032343;28;20408;-69
2022/01/04 12:51:23;;;;;;;4.53;0.90;;;;;;;;;;5031895;28;20085;-68
2022/01/04 12:53:49;;;;;;;8.20;1.20;;;;;;;;;;5027123;28;20143;-68
2022/01/04 12:56:15;;;;;;;7.73;1.20;;;;;;;;;;5024555;28;20081;-68
2022/01/04 12:58:41;;;;;;;6.67;1.07;;;;;;;;;;5030983;28;20771;-69
2022/01/04 13:01:07;;;;;;;8.17;1.03;;;;;;;;;;5029887;28;20045;-69
2022/01/04 13:03:33;;;;;;;9.47;2.13;;;;;;;;;;5029885;28;20103;-68
2022/01/04 13:06:04;;;;;;;6.47;0.90;;;;;;;;;;5030725;28;20490;-68
2022/01/04 13:08:35;;;;;;;10.37;1.40;;;;;;;;;;5030035;28;20100;-69
2022/01/04 13:11:08;;;;;;;4.60;0.83;;;;;;;;;;5031533;28;20049;-69
2022/01/04 13:13:34;;;;;;;6.78;1.00;;;;;;;;;;5044467;28;20069;-69
2022/01/04 13:16:19;;;;;;;5.90;1.27;;;;;;;;;;5030552;28;20041;-69
2022/01/04 13:18:45;;;;;;;10.30;1.10;;;;;;;;;;5029403;28;20056;-69
2022/01/04 13:21:11;;;;;;;10.67;2.00;;;;;;;;;;5028910;28;20048;-69
2022/01/04 13:23:41;;;;;;;9.93;1.50;;;;;;;;;;5047274;28;20041;-69
2022/01/04 13:26:09;;;;;;;6.00;1.03;;;;;;;;;;5031021;28;20045;-69
2022/01/04 13:28:36;;;;;;;9.87;1.60;;;;;;;;;;5028441;28;20041;-69
2022/01/04 13:31:02;;;;;;;11.93;1.43;;;;;;;;;;5030825;28;20049;-69
2022/01/04 13:33:28;;;;;;;10.07;1.60;;;;;;;;;;5050293;28;20400;-69
2022/01/04 13:35:56;;;;;;;6.77;1.37;;;;;;;;;;5032830;28;20565;-69
2022/01/04 13:38:23;;;;;;;7.20;1.57;;;;;;;;;;5030908;28;20050;-70
2022/01/04 13:40:50;;;;;;;8.83;1.27;;;;;;;;;;5038711;28;20049;-70
2022/01/04 13:43:17;;;;;;;16.23;3.20;;;;;;;;;;5042069;28;20055;-70
2022/01/04 13:45:48;;;;;;;9.23;1.30;;;;;;;;;;5031195;28;20092;-70
2022/01/04 13:48:20;;;;;;;15.70;1.60;;;;;;;;;;5029767;28;20054;-70
2022/01/04 13:50:47;;;;;;;9.97;1.53;;;;;;;;;;5048521;28;20147;-70
2022/01/04 13:53:16;;;;;;;10.77;1.17;;;;;;;;;;5039998;28;20562;-70
2022/01/04 13:55:46;;;;;;;7.60;1.30;;;;;;;;;;5036701;28;20496;-69
2022/01/04 13:58:29;;;;;;;9.40;1.40;;;;;;;;;;5048328;28;20590;-70
2022/01/04 14:00:55;;;;;;;10.07;1.53;;;;;;;;;;5050272;28;20048;-70
2022/01/04 14:03:28;;;;;;;10.13;1.67;;;;;;;;;;5051055;28;20737;-70
2022/01/04 14:05:54;;;;;;;;;;;;;;;;;;5051100;28;20052;-70
2022/01/04 14:08:20;;;;;;;8.43;1.23;;;;;;;;;;5049617;28;19927;-70
2022/01/04 14:10:47;;;;;;;7.50;1.27;;;;;;;;;;5042775;28;20045;-70
2022/01/04 14:13:29;;;;;;;9.20;1.30;;;;;;;;;;5030461;28;20120;-70
2022/01/04 14:16:14;;;;;;;5.77;1.43;;;;;;;;;;5030435;28;20448;-70
2022/01/04 14:18:59;;;;;;;5.83;1.53;;;;;;;;;;5029441;28;20057;-70
2022/01/04 14:21:32;;;;;;;10.13;1.60;;;;;;;;;;5029318;28;20044;-70
2022/01/04 14:23:58;;;;;;;9.68;1.50;;;;;;;;;;5029096;28;20041;-70
2022/01/04 14:26:24;;;;;;;10.50;1.63;;;;;;;;;;5030287;28;20045;-70
2022/01/04 14:28:50;;;;;;;14.17;2.10;;;;;;;;;;5028967;28;20080;-70
2022/01/04 14:31:17;;;;;;;16.30;2.73;;;;;;;;;;5030415;28;20503;-70
2022/01/04 14:33:43;;;;;;;8.67;1.70;;;;;;;;;;5028708;28;20052;-70
2022/01/04 14:36:09;;;;;;;8.43;1.30;;;;;;;;;;5028991;28;20041;-70